• Join FlightAware (Why Join?)
  • Login
  • US Flag 
09:54AM EDT


 

Airport Tracker/Info


-or-


 

Live Flight TrackerFlight Track Log ✈ AWI3970 ✈ 23-Jun-2013 ✈ KPHL - KALB

Flight Track Log - Related Links

Times and Time Zones

All times are in EDT time to prevent confusion due to time zone crossing. See the AWI3970 flight status page for this flight to view local times or setup timezone preferences in your user account.

Time Position Orientation Groundspeed Altitude Reporting Facility
EDT Latitude Longitude Course Direction KTS MPH feet Rate Location/Type
12:38AM 39.8667 -75.2667 247° West 149 171 1,100  Level Philadelphia TRACON
12:39AM 39.8500 -75.3167 247° West 191 220 3,400 2,820 Climbing Philadelphia TRACON
12:40AM 39.8000 -75.3667 218° Southwest 226 260 6,200 2,340 Climbing Philadelphia TRACON
12:41AM 39.7667 -75.3167 131° Southeast 273 314 7,900 2,100 Climbing Philadelphia TRACON
12:41AM 39.7833 -75.2167 78° East 294 338 10,000 1,920 Climbing Philadelphia TRACON
12:42AM 39.7833 -75.1167 90° East 320 368 11,600 1,380 Climbing Philadelphia TRACON
12:44AM 39.7875 -74.8881 89° East 377 434 13,900 1,380 Climbing New York Center
12:45AM 39.7942 -74.7478 86° East 382 440 15,400 1,380 Climbing New York Center
12:46AM 39.8583 -74.6378 53° Northeast 387 445 16,700 1,140 Climbing New York Center
12:48AM 40.0731 -74.5822 11° North 371 427 19,000 1,080 Climbing Boston Center
12:49AM 40.1842 -74.5506 12° North 383 441 20,000 900 Climbing Boston Center
12:50AM 40.2972 -74.5186 12° North 397 457 20,900 780 Climbing Boston Center
12:51AM 40.4125 -74.4869 12° North 410 472 21,600 780 Climbing Boston Center
12:52AM 40.5297 -74.4525 13° North 416 479 22,500 780 Climbing Boston Center
12:53AM 40.6469 -74.4206 12° North 422 486 23,200 720 Climbing Boston Center
12:54AM 40.7642 -74.3856 13° North 422 486 24,000 660 Climbing Boston Center
12:55AM 40.8983 -74.3514 11° North 435 501 24,600 480 Climbing Boston Center
12:56AM 41.0217 -74.3192 11° North 440 506 25,000 180 Climbing Boston Center
12:57AM 41.1453 -74.2814 13° North 446 513 25,000  Level Boston Center
12:58AM 41.2689 -74.2408 14° North 452 520 25,000  Level Boston Center
12:59AM 41.3861 -74.2053 13° North 459 528 25,000  Level Boston Center
01:00AM 41.5161 -74.1672 12° North 464 534 25,000 -720 Level Boston Center
01:01AM 41.6583 -74.1267 12° North 469 540 23,600 -2,100 Descending Boston Center
01:02AM 41.7819 -74.0939 11° North 464 534 20,900 -2,700 Descending Boston Center
01:03AM 41.8864 -74.0631 12° North 446 513 18,300 -2,520 Descending Boston Center
01:04AM 42.0058 -74.0269 13° North 428 493 16,100 -2,400 Descending Boston Center
01:05AM 42.1208 -73.9936 12° North 411 473 13,700 -2,280 Descending Boston Center
01:06AM 42.2256 -73.9625 12° North 400 460 11,500 -1,440 Descending Boston Center
01:07AM 42.3217 -73.9339 12° North 326 375 10,900 -1,740 Descending Boston Center
01:08AM 42.4078 -73.8994 16° North 283 326 8,100 -2,760 Descending Boston Center
01:09AM 42.4831 -73.8731 14° North 276 318 5,400 -2,760 Descending Boston Center
01:10AM 42.5500 -73.8436 18° North 256 295 2,600 -1,560 Descending Boston Center
01:11AM 42.6086 -73.8253 13° North 254 292 2,300 -300 Descending Boston Center
01:12AM 42.6842 -73.7986 15° North 244 281 2,100 4,320 Descending Boston Center
01:13AM 42.7511 -73.7803 11° North 244 281 11,000 4,440 Climbing Boston Center
01:14AM 42.8200 -73.7592 13° North 244 281 11,000  Level Boston Center
01:15AM 42.8869 -73.7408 11° North 244 281 11,000  Level Boston Center
01:16AM 42.9142 -73.7328 12° North 244 281 11,000  Level Boston Center
01:18AM 42.9142 -73.7328 154° Southeast 244 281 11,000  Level Boston Center